createdAt,value
2023-02-07T00:01:29.630Z,57.67
2023-02-07T00:03:57.274Z,46.42
2023-02-07T00:06:36.331Z,38.05
2023-02-07T00:09:07.416Z,56.88
2023-02-07T00:11:36.457Z,61.97
2023-02-07T00:14:03.929Z,54.85
2023-02-07T00:17:05.144Z,55.33
2023-02-07T00:19:31.880Z,50.22
2023-02-07T00:21:59.518Z,40.10
2023-02-07T00:24:29.062Z,41.58
2023-02-07T00:26:55.831Z,34.45
2023-02-07T00:29:22.549Z,33.78
2023-02-07T00:31:49.197Z,38.28
2023-02-07T00:34:15.970Z,36.55
2023-02-07T00:36:43.549Z,29.75
2023-02-07T00:39:16.144Z,31.08
2023-02-07T00:41:44.580Z,29.15
2023-02-07T00:44:11.925Z,27.60
2023-02-07T00:46:39.101Z,26.27
2023-02-07T00:49:06.534Z,24.95
2023-02-07T00:51:33.710Z,33.42
2023-02-07T00:54:00.829Z,26.30
2023-02-07T00:56:30.646Z,33.70
2023-02-07T00:58:58.851Z,25.00
2023-02-07T01:01:27.574Z,33.70
2023-02-07T01:03:56.817Z,23.15
2023-02-07T01:06:24.072Z,24.70
2023-02-07T01:08:50.748Z,22.17
2023-02-07T01:11:18.748Z,25.73
2023-02-07T01:13:45.595Z,24.80
2023-02-07T01:16:28.608Z,26.05
2023-02-07T01:18:56.047Z,23.08
2023-02-07T01:21:26.739Z,33.05
2023-02-07T01:23:56.679Z,27.10
2023-02-07T01:26:27.400Z,24.17
2023-02-07T01:28:55.778Z,18.55
2023-02-07T01:31:25.226Z,23.58
2023-02-07T01:34:00.396Z,21.83
2023-02-07T01:36:29.442Z,27.50
2023-02-07T01:38:57.464Z,25.70
2023-02-07T01:41:27.089Z,29.77
2023-02-07T01:44:28.025Z,29.40
2023-02-07T01:46:57.064Z,21.92
2023-02-07T01:49:36.090Z,23.70
2023-02-07T01:52:13.736Z,25.60
2023-02-07T01:54:41.446Z,28.17
2023-02-07T01:57:12.597Z,21.27
2023-02-07T01:59:43.906Z,31.58
2023-02-07T02:02:15.840Z,21.02
2023-02-07T02:04:42.802Z,23.27
2023-02-07T02:07:11.606Z,29.25
2023-02-07T02:09:39.208Z,18.95
2023-02-07T02:12:35.104Z,19.48
2023-02-07T02:15:38.345Z,23.45
2023-02-07T02:18:45.423Z,24.55
2023-02-07T02:21:26.347Z,23.75
2023-02-07T02:24:41.182Z,25.60
2023-02-07T02:27:25.754Z,28.80
2023-02-07T02:30:19.924Z,24.50
2023-02-07T02:33:08.303Z,27.52
2023-02-07T02:35:53.088Z,23.30
2023-02-07T02:38:42.642Z,26.48
2023-02-07T02:41:28.334Z,27.90
2023-02-07T02:44:18.518Z,26.50
2023-02-07T02:46:47.759Z,24.80
2023-02-07T02:49:16.611Z,25.48
2023-02-07T02:51:43.263Z,26.33
2023-02-07T02:54:37.215Z,30.58
2023-02-07T02:57:46.449Z,21.83
2023-02-07T03:00:42.248Z,24.60
2023-02-07T03:03:41.118Z,33.47
2023-02-07T03:06:43.160Z,23.63
2023-02-07T03:09:48.227Z,34.95
2023-02-07T03:12:24.461Z,34.85
2023-02-07T03:15:47.938Z,31.15
2023-02-07T03:18:25.025Z,29.85
2023-02-07T03:21:33.829Z,29.52
2023-02-07T03:24:07.080Z,24.13
2023-02-07T03:26:36.898Z,28.90
2023-02-07T03:29:06.525Z,29.67
2023-02-07T03:31:35.695Z,29.20
2023-02-07T03:34:11.062Z,33.13
2023-02-07T03:36:40.048Z,24.00
2023-02-07T03:39:06.878Z,26.38
2023-02-07T03:41:42.071Z,24.85
2023-02-07T03:44:12.885Z,26.42
2023-02-07T03:46:40.329Z,22.05
2023-02-07T03:49:11.498Z,27.98
2023-02-07T03:51:38.206Z,27.02
2023-02-07T03:54:04.951Z,29.23
2023-02-07T03:56:31.612Z,23.70
2023-02-07T03:58:58.279Z,23.90
2023-02-07T04:01:25.046Z,31.58
2023-02-07T04:03:51.704Z,30.10
2023-02-07T04:06:18.665Z,29.13
2023-02-07T04:08:45.324Z,29.55
2023-02-07T04:11:12.059Z,28.83
2023-02-07T04:13:38.949Z,30.02
2023-02-07T04:16:07.074Z,23.77
2023-02-07T04:18:34.300Z,26.90
2023-02-07T04:21:03.984Z,25.15
2023-02-07T04:23:31.648Z,24.75
2023-02-07T04:25:58.697Z,20.13
2023-02-07T04:28:25.510Z,23.65
2023-02-07T04:30:52.424Z,22.63
2023-02-07T04:33:21.158Z,19.30
2023-02-07T04:36:03.085Z,19.27
2023-02-07T04:38:30.232Z,18.52
2023-02-07T04:41:05.807Z,22.38
2023-02-07T04:43:35.711Z,20.02
2023-02-07T04:46:04.016Z,22.33
2023-02-07T04:48:31.137Z,18.05
2023-02-07T04:50:58.265Z,15.65
2023-02-07T04:53:25.416Z,21.85
2023-02-07T04:55:54.254Z,21.15
2023-02-07T04:58:22.580Z,15.77
2023-02-07T05:00:49.557Z,20.40
2023-02-07T05:03:16.631Z,21.70
2023-02-07T05:05:44.798Z,14.18
2023-02-07T05:08:12.805Z,16.10
2023-02-07T05:10:39.967Z,21.30
2023-02-07T05:13:07.519Z,17.77
2023-02-07T05:15:34.488Z,19.55
2023-02-07T05:18:01.210Z,16.95
2023-02-07T05:20:28.385Z,13.40
2023-02-07T05:22:55.101Z,12.35
2023-02-07T05:25:22.669Z,17.70
2023-02-07T05:27:49.362Z,18.20
2023-02-07T05:30:16.069Z,14.35
2023-02-07T05:33:01.396Z,17.23
2023-02-07T05:35:28.024Z,16.33
2023-02-07T05:37:54.664Z,18.38
2023-02-07T05:40:21.283Z,16.23
2023-02-07T05:42:48.051Z,11.75
2023-02-07T05:45:14.728Z,14.48
2023-02-07T05:47:41.403Z,14.98
2023-02-07T05:50:08.568Z,25.23
2023-02-07T05:52:35.885Z,13.60
2023-02-07T05:55:03.148Z,16.55
2023-02-07T05:57:29.916Z,17.98
2023-02-07T05:59:56.704Z,14.40
2023-02-07T06:02:24.005Z,16.23
2023-02-07T06:04:50.627Z,16.27
2023-02-07T06:07:17.240Z,19.42
2023-02-07T06:09:43.942Z,9.05
2023-02-07T06:12:10.644Z,16.63
2023-02-07T06:14:37.270Z,15.32
2023-02-07T06:17:03.926Z,12.90
2023-02-07T06:19:30.539Z,12.00
2023-02-07T06:21:57.181Z,12.10
2023-02-07T06:24:23.834Z,17.15
2023-02-07T06:26:50.415Z,12.73
2023-02-07T06:29:17.117Z,13.27
2023-02-07T06:31:43.922Z,12.85
2023-02-07T06:34:10.721Z,16.88
2023-02-07T06:36:37.442Z,15.18
2023-02-07T06:39:04.433Z,9.85
2023-02-07T06:41:31.034Z,11.73
2023-02-07T06:43:57.637Z,13.05
2023-02-07T06:46:24.375Z,11.55
2023-02-07T06:48:51.272Z,10.23
2023-02-07T06:51:17.885Z,14.90
2023-02-07T06:53:44.526Z,13.35
2023-02-07T06:56:11.207Z,13.48
2023-02-07T06:58:37.929Z,12.43
2023-02-07T07:01:05.418Z,11.02
2023-02-07T07:03:32.133Z,10.25
2023-02-07T07:05:59.592Z,15.60
2023-02-07T07:08:27.679Z,10.98
2023-02-07T07:10:56.703Z,13.60
2023-02-07T07:13:23.504Z,12.30
2023-02-07T07:15:50.256Z,13.57
2023-02-07T07:18:16.884Z,12.27
2023-02-07T07:20:43.515Z,13.77
2023-02-07T07:23:10.139Z,13.88
2023-02-07T07:25:36.851Z,15.43
2023-02-07T07:28:03.816Z,14.57
2023-02-07T07:30:31.215Z,12.23
2023-02-07T07:32:57.900Z,16.52
2023-02-07T07:35:24.639Z,18.55
2023-02-07T07:37:51.239Z,14.10
2023-02-07T07:40:18.030Z,15.77
2023-02-07T07:42:44.663Z,12.27
2023-02-07T07:45:35.429Z,12.32
2023-02-07T07:48:02.081Z,14.50
2023-02-07T07:50:28.795Z,16.38
2023-02-07T07:52:55.466Z,10.90
2023-02-07T07:55:22.112Z,18.00
2023-02-07T07:57:48.761Z,10.50
2023-02-07T08:00:16.019Z,12.55
2023-02-07T08:02:43.326Z,14.07
2023-02-07T08:05:13.574Z,22.70
2023-02-07T08:07:40.774Z,11.82
2023-02-07T08:10:08.026Z,11.18
2023-02-07T08:12:34.673Z,12.35
2023-02-07T08:15:01.467Z,14.48
2023-02-07T08:17:28.117Z,14.35
2023-02-07T08:19:54.846Z,20.50
2023-02-07T08:22:21.604Z,10.68
2023-02-07T08:24:48.291Z,16.20
2023-02-07T08:27:14.997Z,10.63
2023-02-07T08:29:41.736Z,9.88
2023-02-07T08:32:08.431Z,11.63
2023-02-07T08:34:37.528Z,18.00
2023-02-07T08:37:09.261Z,10.85
2023-02-07T08:39:36.345Z,9.82
2023-02-07T08:42:05.444Z,10.57
2023-02-07T08:44:32.358Z,7.47
2023-02-07T08:46:59.007Z,10.32
2023-02-07T08:49:25.889Z,6.85
2023-02-07T08:51:52.833Z,8.32
2023-02-07T08:54:19.921Z,6.80
2023-02-07T08:56:46.567Z,7.80
2023-02-07T08:59:13.196Z,10.57
2023-02-07T09:01:39.935Z,10.00
2023-02-07T09:04:06.676Z,7.75
2023-02-07T09:06:33.361Z,7.95
2023-02-07T09:09:00.049Z,7.40
2023-02-07T09:11:26.947Z,6.68
2023-02-07T09:13:53.658Z,6.45
2023-02-07T09:16:20.664Z,8.43
2023-02-07T09:18:47.373Z,11.48
2023-02-07T09:21:14.072Z,9.05
2023-02-07T09:23:41.934Z,7.40
2023-02-07T09:26:10.952Z,5.75
2023-02-07T09:28:37.856Z,7.15
2023-02-07T09:31:10.745Z,7.45
2023-02-07T09:33:38.164Z,7.03
2023-02-07T09:36:05.759Z,6.85
2023-02-07T09:38:32.781Z,10.23
2023-02-07T09:40:59.901Z,7.95
2023-02-07T09:43:55.695Z,4.88
2023-02-07T09:46:48.368Z,9.90
2023-02-07T09:49:43.648Z,9.18
2023-02-07T09:53:06.858Z,9.15
2023-02-07T09:56:01.932Z,8.05
2023-02-07T09:58:42.704Z,10.63
2023-02-07T10:01:46.426Z,5.88
2023-02-07T10:04:20.952Z,6.60
2023-02-07T10:07:00.092Z,5.88
2023-02-07T10:09:53.722Z,8.50
2023-02-07T10:12:26.300Z,8.05
2023-02-07T10:14:58.736Z,9.50
2023-02-07T10:17:40.504Z,7.80
2023-02-07T10:20:19.377Z,6.45
2023-02-07T10:23:04.199Z,7.93
2023-02-07T10:26:00.374Z,5.28
2023-02-07T10:28:54.813Z,5.03
2023-02-07T10:31:24.997Z,6.75
2023-02-07T10:34:04.150Z,7.45
2023-02-07T10:36:34.346Z,8.48
2023-02-07T10:39:19.169Z,5.95
2023-02-07T10:41:45.817Z,7.88
2023-02-07T10:44:19.591Z,8.80
2023-02-07T10:46:57.219Z,6.75
2023-02-07T10:49:28.153Z,8.00
2023-02-07T10:52:06.465Z,7.32
2023-02-07T10:54:50.703Z,8.93
2023-02-07T10:57:20.888Z,6.05
2023-02-07T10:59:49.146Z,6.18
2023-02-07T11:02:31.670Z,6.82
2023-02-07T11:05:00.726Z,6.78
2023-02-07T11:07:32.498Z,8.05
2023-02-07T11:10:21.466Z,6.60
2023-02-07T11:12:59.828Z,6.70
2023-02-07T11:15:47.753Z,11.25
2023-02-07T11:18:46.734Z,5.10
2023-02-07T11:21:42.453Z,5.32
2023-02-07T11:24:42.501Z,6.03
2023-02-07T11:27:16.893Z,6.28
2023-02-07T11:29:49.796Z,4.97
2023-02-07T11:32:17.326Z,6.93
2023-02-07T11:35:05.810Z,7.45
2023-02-07T11:37:39.590Z,7.03
2023-02-07T11:40:16.924Z,5.82
2023-02-07T11:42:43.552Z,8.48
2023-02-07T11:45:22.417Z,5.82
2023-02-07T11:47:55.569Z,7.45
2023-02-07T11:50:55.544Z,8.48
2023-02-07T11:53:51.696Z,5.53
2023-02-07T11:56:26.834Z,7.78
2023-02-07T11:58:54.702Z,5.90
2023-02-07T12:01:33.535Z,5.93
2023-02-07T12:04:19.984Z,6.68
2023-02-07T12:06:55.523Z,6.43
2023-02-07T12:09:51.242Z,7.78
2023-02-07T12:12:42.482Z,6.68
2023-02-07T12:15:22.960Z,5.78
2023-02-07T12:18:23.061Z,7.25
2023-02-07T12:21:19.566Z,8.38
2023-02-07T12:24:18.661Z,8.25
2023-02-07T12:26:58.805Z,7.63
2023-02-07T12:29:25.401Z,6.32
2023-02-07T12:32:09.941Z,5.95
2023-02-07T12:35:14.040Z,6.45
2023-02-07T12:38:00.888Z,6.15
2023-02-07T12:41:12.644Z,6.80
2023-02-07T12:43:48.513Z,8.77
2023-02-07T12:46:39.902Z,9.60
2023-02-07T12:49:28.368Z,5.93
2023-02-07T12:52:32.733Z,7.85
2023-02-07T12:55:12.481Z,5.90
2023-02-07T12:58:16.658Z,5.78
2023-02-07T13:01:09.052Z,8.10
2023-02-07T13:04:24.269Z,6.82
2023-02-07T13:07:32.889Z,7.47
2023-02-07T13:10:36.509Z,8.02
2023-02-07T13:14:07.937Z,10.30
2023-02-07T13:17:39.491Z,6.47
2023-02-07T13:20:09.144Z,5.18
2023-02-07T13:23:00.428Z,6.68
2023-02-07T13:25:42.082Z,5.40
2023-02-07T13:28:20.948Z,6.88
2023-02-07T13:30:49.274Z,6.55
2023-02-07T13:33:43.361Z,5.63
2023-02-07T13:36:40.808Z,5.22
2023-02-07T13:39:31.946Z,5.15
2023-02-07T13:42:28.982Z,4.82
2023-02-07T13:44:55.643Z,8.02
2023-02-07T13:47:40.860Z,4.95
2023-02-07T13:50:43.878Z,5.32
2023-02-07T13:53:38.394Z,7.75
2023-02-07T13:56:32.488Z,4.97
2023-02-07T13:59:19.128Z,4.57
2023-02-07T14:01:58.108Z,7.45
2023-02-07T14:04:25.328Z,6.85
2023-02-07T14:06:57.299Z,6.18
2023-02-07T14:09:46.718Z,6.45
2023-02-07T14:12:39.497Z,4.30
2023-02-07T14:15:30.512Z,6.90
2023-02-07T14:18:04.394Z,6.70
2023-02-07T14:20:37.447Z,5.75
2023-02-07T14:23:14.373Z,6.13
2023-02-07T14:25:43.614Z,4.60
2023-02-07T14:28:29.881Z,5.57
2023-02-07T14:31:01.823Z,4.10
2023-02-07T14:33:40.976Z,4.68
2023-02-07T14:36:13.823Z,5.53
2023-02-07T14:38:58.855Z,5.38
2023-02-07T14:41:35.382Z,5.78
2023-02-07T14:44:10.167Z,4.72
2023-02-07T14:46:42.013Z,4.93
2023-02-07T14:49:29.976Z,5.15
2023-02-07T14:52:06.367Z,6.85
2023-02-07T14:54:40.478Z,7.80
2023-02-07T14:57:43.785Z,7.90
2023-02-07T15:00:13.452Z,5.53
2023-02-07T15:02:52.472Z,6.85
2023-02-07T15:05:38.073Z,7.80
2023-02-07T15:08:16.350Z,5.35
2023-02-07T15:11:22.958Z,5.88
2023-02-07T15:13:49.931Z,7.15
2023-02-07T15:16:26.896Z,4.72
2023-02-07T15:19:15.101Z,5.57
2023-02-07T15:21:49.459Z,6.53
2023-02-07T15:24:28.669Z,7.43
2023-02-07T15:27:00.114Z,9.10
2023-02-07T15:29:31.803Z,5.30
2023-02-07T15:31:59.068Z,5.05
2023-02-07T15:34:35.005Z,7.35
2023-02-07T15:37:20.116Z,5.45
2023-02-07T15:39:47.831Z,3.95
2023-02-07T15:42:19.734Z,7.28
2023-02-07T15:44:55.592Z,10.43
2023-02-07T15:50:24.461Z,6.93
2023-02-07T15:53:21.480Z,6.70
2023-02-07T15:55:50.615Z,7.75
2023-02-07T15:58:27.125Z,6.90
2023-02-07T16:01:01.379Z,13.70
2023-02-07T16:03:37.606Z,8.15
2023-02-07T16:06:18.129Z,7.03
2023-02-07T16:08:45.410Z,6.38
2023-02-07T16:11:19.952Z,18.70
2023-02-07T16:14:01.239Z,14.35
2023-02-07T16:16:41.005Z,14.93
2023-02-07T16:19:22.900Z,10.25
2023-02-07T16:22:12.087Z,11.57
2023-02-07T16:24:46.496Z,11.38
2023-02-07T16:27:20.762Z,9.43
2023-02-07T16:29:47.973Z,9.23
2023-02-07T16:32:14.795Z,9.73
2023-02-07T16:34:53.750Z,10.07
2023-02-07T16:37:20.638Z,9.98
2023-02-07T16:39:47.282Z,7.68
2023-02-07T16:42:16.480Z,8.50
2023-02-07T16:44:46.056Z,7.50
2023-02-07T16:47:14.501Z,7.68
2023-02-07T16:49:44.718Z,9.57
2023-02-07T16:52:11.419Z,7.57
2023-02-07T16:54:38.129Z,6.88
2023-02-07T16:57:05.025Z,10.23
2023-02-07T16:59:31.838Z,6.90
2023-02-07T17:01:58.558Z,10.00
2023-02-07T17:04:25.345Z,12.40
2023-02-07T17:06:52.028Z,18.25
2023-02-07T17:09:24.058Z,26.17
2023-02-07T17:11:54.955Z,13.65
2023-02-07T17:14:22.482Z,11.80
2023-02-07T17:16:49.894Z,13.93
2023-02-07T17:19:23.137Z,11.95
2023-02-07T17:21:51.777Z,11.10
2023-02-07T17:24:19.146Z,10.98
2023-02-07T17:26:50.423Z,9.32
2023-02-07T17:29:18.283Z,11.43
2023-02-07T17:31:45.935Z,16.98
2023-02-07T17:34:13.138Z,10.38
2023-02-07T17:36:46.748Z,9.20
2023-02-07T17:39:16.216Z,7.72
2023-02-07T17:41:43.458Z,8.50
2023-02-07T17:44:10.186Z,8.73
2023-02-07T17:46:37.928Z,9.63
2023-02-07T17:49:06.284Z,8.23
2023-02-07T17:51:32.923Z,6.97
2023-02-07T17:53:59.521Z,7.68
2023-02-07T17:56:29.468Z,9.35
2023-02-07T17:59:02.318Z,10.70
2023-02-07T18:01:30.750Z,9.02
2023-02-07T18:03:57.981Z,9.52
2023-02-07T18:06:29.313Z,9.10
2023-02-07T18:08:58.646Z,8.27
2023-02-07T18:11:27.831Z,14.93
2023-02-07T18:13:56.963Z,9.20
2023-02-07T18:16:26.420Z,13.90
2023-02-07T18:18:56.276Z,11.20
2023-02-07T18:21:22.948Z,9.88
2023-02-07T18:23:52.108Z,10.80
2023-02-07T18:26:19.363Z,9.68
2023-02-07T18:28:46.642Z,9.77
2023-02-07T18:31:21.385Z,15.40
2023-02-07T18:33:49.088Z,15.52
2023-02-07T18:36:17.316Z,14.68
2023-02-07T18:38:44.367Z,13.52
2023-02-07T18:41:14.563Z,14.77
2023-02-07T18:43:42.466Z,13.57
2023-02-07T18:46:16.604Z,12.27
2023-02-07T18:48:44.927Z,14.52
2023-02-07T18:51:15.321Z,13.32
2023-02-07T18:53:42.948Z,22.73
2023-02-07T18:56:22.757Z,19.58
2023-02-07T18:58:52.880Z,21.23
2023-02-07T19:01:20.771Z,21.77
2023-02-07T19:03:54.445Z,16.63
2023-02-07T19:06:23.202Z,15.32
2023-02-07T19:08:50.588Z,15.82
2023-02-07T19:11:17.334Z,13.75
2023-02-07T19:13:43.954Z,13.13
2023-02-07T19:16:18.064Z,15.38
2023-02-07T19:18:45.008Z,21.63
2023-02-07T19:21:17.637Z,15.73
2023-02-07T19:23:44.524Z,15.65
2023-02-07T19:26:11.173Z,16.42
2023-02-07T19:28:38.707Z,16.40
2023-02-07T19:31:08.950Z,17.35
2023-02-07T19:33:36.690Z,24.35
2023-02-07T19:36:09.758Z,16.48
2023-02-07T19:38:36.969Z,21.85
2023-02-07T19:41:05.175Z,18.13
2023-02-07T19:43:32.344Z,18.35
2023-02-07T19:45:59.029Z,21.73
2023-02-07T19:48:25.903Z,18.42
2023-02-07T19:51:03.378Z,15.75
2023-02-07T19:53:30.951Z,19.63
2023-02-07T19:56:11.304Z,20.30
2023-02-07T19:58:42.374Z,18.25
2023-02-07T20:01:09.687Z,19.25
2023-02-07T20:03:38.354Z,21.42
2023-02-07T20:06:12.022Z,19.83
2023-02-07T20:08:40.772Z,19.30
2023-02-07T20:11:16.662Z,21.63
2023-02-07T20:16:16.632Z,28.75
2023-02-07T20:18:43.500Z,22.42
2023-02-07T20:21:16.707Z,24.25
2023-02-07T20:23:46.622Z,29.30
2023-02-07T20:26:20.840Z,30.55
2023-02-07T20:28:49.887Z,28.45
2023-02-07T20:31:20.467Z,27.58
2023-02-07T20:33:47.412Z,24.25
2023-02-07T20:36:16.707Z,27.55
2023-02-07T20:38:45.815Z,24.52
2023-02-07T20:41:28.794Z,21.40
2023-02-07T20:44:04.636Z,19.38
2023-02-07T20:46:34.438Z,23.50
2023-02-07T20:49:09.122Z,24.90
2023-02-07T20:51:35.879Z,21.83
2023-02-07T20:54:04.818Z,20.65
2023-02-07T20:56:32.914Z,16.20
2023-02-07T20:59:00.756Z,24.42
2023-02-07T21:01:31.131Z,24.70
2023-02-07T21:04:01.127Z,17.38
2023-02-07T21:06:28.822Z,22.33
2023-02-07T21:09:00.679Z,21.13
2023-02-07T21:11:36.328Z,16.52
2023-02-07T21:14:06.683Z,21.70
2023-02-07T21:16:34.319Z,21.98
2023-02-07T21:19:01.364Z,24.33
2023-02-07T21:21:29.120Z,20.55
2023-02-07T21:23:57.013Z,18.17
2023-02-07T21:26:23.987Z,17.67
2023-02-07T21:28:51.264Z,21.73
2023-02-07T21:31:22.168Z,19.65
2023-02-07T21:33:49.961Z,20.40
2023-02-07T21:36:20.535Z,18.73
2023-02-07T21:38:50.009Z,20.05
2023-02-07T21:41:20.664Z,24.20
2023-02-07T21:43:47.445Z,19.80
2023-02-07T21:46:22.692Z,16.58
2023-02-07T21:48:53.055Z,21.25
2023-02-07T21:51:25.763Z,20.25
2023-02-07T21:53:55.281Z,25.55
2023-02-07T21:56:25.992Z,16.10
2023-02-07T21:59:05.556Z,21.48
2023-02-07T22:01:33.242Z,16.35
2023-02-07T22:04:02.432Z,19.52
2023-02-07T22:06:30.653Z,19.58
2023-02-07T22:09:00.372Z,18.67
2023-02-07T22:11:30.603Z,19.55
2023-02-07T22:13:57.672Z,18.90
2023-02-07T22:16:27.697Z,18.85
2023-02-07T22:18:56.498Z,17.33
2023-02-07T22:21:27.621Z,17.13
2023-02-07T22:23:55.184Z,23.17
2023-02-07T22:26:23.002Z,18.75
2023-02-07T22:28:50.664Z,17.35
2023-02-07T22:31:27.451Z,17.42
2023-02-07T22:33:57.973Z,18.67
2023-02-07T22:36:27.846Z,17.77
2023-02-07T22:38:55.238Z,17.27
2023-02-07T22:41:22.276Z,17.90
2023-02-07T22:43:49.325Z,13.80
2023-02-07T22:46:20.072Z,18.48
2023-02-07T22:48:47.884Z,18.00
2023-02-07T22:51:24.124Z,14.98
2023-02-07T22:54:01.072Z,16.42
2023-02-07T22:56:28.152Z,16.73
2023-02-07T22:58:55.472Z,15.40
2023-02-07T23:01:35.412Z,14.90
2023-02-07T23:04:05.462Z,16.83
2023-02-07T23:06:32.795Z,20.60
2023-02-07T23:08:59.912Z,18.48
2023-02-07T23:11:27.204Z,17.92
2023-02-07T23:13:55.146Z,20.65
2023-02-07T23:16:25.083Z,22.95
2023-02-07T23:18:56.099Z,20.55
2023-02-07T23:21:25.904Z,18.60
2023-02-07T23:23:53.349Z,19.80
2023-02-07T23:26:23.972Z,20.65
2023-02-07T23:28:52.393Z,18.35
2023-02-07T23:31:21.747Z,19.35
2023-02-07T23:33:49.452Z,17.02
2023-02-07T23:36:17.761Z,17.65
2023-02-07T23:38:46.781Z,22.10
2023-02-07T23:41:14.094Z,15.80
2023-02-07T23:43:41.343Z,18.60
2023-02-07T23:46:08.917Z,17.17
2023-02-07T23:48:38.516Z,16.00
2023-02-07T23:51:06.607Z,19.20
2023-02-07T23:53:33.558Z,17.02
2023-02-07T23:56:00.784Z,14.90
2023-02-07T23:58:27.782Z,17.63
